Time;durP1;ratioP1;P1;durP2;ratioP2;P2;SDS_P1;SDS_P2;PMS_P1;PMS_P2;Temp;Humidity;BMP_temperature;BMP_pressure;BME280_temperature;BME280_humidity;BME280_pressure;Samples;Min_cycle;Max_cycle;Signal;HPM_P1;HPM_P2
2023/01/20 00:00:43;;;;;;;;;;;19.30;88.20;;;;;;6308072;22;19903;-66
2023/01/20 00:03:10;;;;;;;;;;;19.30;87.30;;;;;;6308188;22;20289;-66
2023/01/20 00:05:36;;;;;;;;;;;19.30;86.00;;;;;;6307909;22;19903;-66
2023/01/20 00:08:03;;;;;;;;;;;19.40;85.80;;;;;;6308277;22;19907;-66
2023/01/20 00:10:30;;;;;;;;;;;19.40;85.00;;;;;;6281330;22;19907;-66
2023/01/20 00:12:56;;;;;;;;;;;19.50;85.20;;;;;;6255042;22;19903;-65
2023/01/20 00:15:23;;;;;;;;;;;19.50;84.00;;;;;;6307789;22;19915;-66
2023/01/20 00:17:50;;;;;;;;;;;19.50;83.50;;;;;;6308024;22;19903;-66
2023/01/20 00:20:16;;;;;;;;;;;19.40;79.60;;;;;;6307960;22;19902;-66
2023/01/20 00:22:43;;;;;;;;;;;19.40;81.30;;;;;;6307663;22;20286;-66
2023/01/20 00:25:10;;;;;;;;;;;19.40;77.90;;;;;;6307983;22;20334;-66
2023/01/20 00:27:37;;;;;;;;;;;19.40;77.60;;;;;;6308092;22;19910;-66
2023/01/20 00:30:03;;;;;;;;;;;19.40;77.00;;;;;;6307950;22;19956;-66
2023/01/20 00:32:30;;;;;;;;;;;19.40;78.80;;;;;;6307584;22;19973;-66
2023/01/20 00:34:57;;;;;;;;;;;19.30;78.20;;;;;;6307768;22;19903;-66
2023/01/20 00:37:23;;;;;;;;;;;19.30;77.50;;;;;;6307380;22;19906;-66
2023/01/20 00:39:50;;;;;;;;;;;19.40;77.60;;;;;;6308064;22;19903;-66
2023/01/20 00:42:17;;;;;;;;;;;19.40;76.80;;;;;;6307873;22;19903;-66
2023/01/20 00:44:43;;;;;;;;;;;19.50;75.40;;;;;;6307496;22;20340;-65
2023/01/20 00:47:10;;;;;;;;;;;19.60;77.30;;;;;;6307257;22;20297;-66
2023/01/20 00:49:37;;;;;;;;;;;19.60;76.00;;;;;;6307764;22;19926;-65
2023/01/20 00:52:03;;;;;;;;;;;19.70;77.60;;;;;;6280395;22;20246;-65
2023/01/20 00:54:30;;;;;;;;;;;19.80;78.60;;;;;;6307724;22;19910;-65
2023/01/20 00:56:57;;;;;;;;;;;19.80;80.30;;;;;;6307391;22;19910;-66
2023/01/20 00:59:23;;;;;;;;;;;19.70;75.40;;;;;;6307915;22;19903;-65
2023/01/20 01:01:50;;;;;;;;;;;19.70;76.90;;;;;;6307486;22;20326;-66
2023/01/20 01:04:17;;;;;;;;;;;19.80;76.40;;;;;;6307694;22;20238;-66
2023/01/20 01:06:43;;;;;;;;;;;19.70;76.60;;;;;;6307623;22;19957;-65
2023/01/20 01:09:10;;;;;;;;;;;19.80;77.70;;;;;;6306852;22;19902;-66
2023/01/20 01:11:37;;;;;;;;;;;19.70;76.40;;;;;;6306996;22;19903;-66
2023/01/20 01:14:03;;;;;;;;;;;19.70;78.50;;;;;;6307757;22;19903;-65
2023/01/20 01:16:30;;;;;;;;;;;19.70;79.80;;;;;;6307131;22;20381;-67
2023/01/20 01:18:57;;;;;;;;;;;19.70;78.80;;;;;;6307383;22;19906;-67
2023/01/20 01:21:23;;;;;;;;;;;19.70;80.10;;;;;;6307378;22;19903;-67
2023/01/20 01:23:51;;;;;;;;;;;19.70;80.50;;;;;;6307354;22;20320;-66
2023/01/20 01:26:18;;;;;;;;;;;19.70;78.80;;;;;;6307663;22;19915;-65
2023/01/20 01:28:47;;;;;;;;;;;19.70;77.70;;;;;;6307277;22;20361;-65
2023/01/20 01:31:14;;;;;;;;;;;19.80;77.40;;;;;;6306882;22;19903;-64
2023/01/20 01:33:41;;;;;;;;;;;19.80;77.70;;;;;;6306930;22;20231;-65
2023/01/20 01:36:08;;;;;;;;;;;19.90;78.00;;;;;;6307125;22;19903;-65
2023/01/20 01:38:35;;;;;;;;;;;20.00;77.50;;;;;;6306981;22;19933;-65
2023/01/20 01:41:02;;;;;;;;;;;20.10;76.00;;;;;;6307365;22;19925;-65
2023/01/20 01:43:29;;;;;;;;;;;20.10;77.10;;;;;;6307253;22;19961;-65
2023/01/20 01:45:56;;;;;;;;;;;20.10;72.10;;;;;;6306942;22;19911;-65
2023/01/20 01:48:30;;;;;;;;;;;20.10;72.30;;;;;;6306994;22;19903;-65
2023/01/20 01:51:02;;;;;;;;;;;20.10;72.30;;;;;;6306622;22;19899;-66
2023/01/20 01:53:29;;;;;;;;;;;20.00;72.30;;;;;;6306831;22;20044;-66
2023/01/20 01:55:56;;;;;;;;;;;20.10;72.30;;;;;;6307592;22;19949;-68
2023/01/20 01:58:24;;;;;;;;;;;20.10;72.60;;;;;;6279862;22;19922;-65
2023/01/20 02:00:51;;;;;;;;;;;20.10;72.00;;;;;;6280369;22;19910;-66
2023/01/20 02:03:17;;;;;;;;;;;20.10;73.10;;;;;;6306728;22;19907;-65
2023/01/20 02:05:44;;;;;;;;;;;20.10;73.00;;;;;;6307033;22;19902;-66
2023/01/20 02:08:11;;;;;;;;;;;20.00;72.60;;;;;;6306658;22;19903;-66
2023/01/20 02:10:37;;;;;;;;;;;19.90;73.90;;;;;;6306788;22;19903;-66
2023/01/20 02:13:04;;;;;;;;;;;19.80;75.30;;;;;;6279265;22;20275;-66
2023/01/20 02:15:36;;;;;;;;;;;19.80;74.80;;;;;;6279566;22;19915;-67
2023/01/20 02:18:15;;;;;;;;;;;19.80;76.50;;;;;;6280182;22;20284;-66
2023/01/20 02:21:05;;;;;;;;;;;19.70;75.30;;;;;;6307090;22;19910;-66
2023/01/20 02:23:38;;;;;;;;;;;19.70;74.60;;;;;;6280022;22;19984;-66
2023/01/20 02:26:23;;;;;;;;;;;19.80;74.60;;;;;;6306664;22;19942;-66
2023/01/20 02:28:57;;;;;;;;;;;19.70;74.20;;;;;;6279830;22;19910;-65
2023/01/20 02:31:42;;;;;;;;;;;19.70;75.30;;;;;;6254069;22;20167;-66
2023/01/20 02:34:08;;;;;;;;;;;19.80;75.40;;;;;;6306762;22;19907;-66
2023/01/20 02:36:48;;;;;;;;;;;19.80;73.70;;;;;;6278931;22;20017;-66
2023/01/20 02:39:15;;;;;;;;;;;19.80;72.10;;;;;;6279152;22;19910;-66
2023/01/20 02:42:02;;;;;;;;;;;19.80;70.00;;;;;;6306413;22;20404;-66
2023/01/20 02:44:36;;;;;;;;;;;19.80;71.40;;;;;;6306427;22;19907;-66
2023/01/20 02:47:12;;;;;;;;;;;19.90;68.80;;;;;;6279429;22;19949;-66
2023/01/20 02:49:42;;;;;;;;;;;20.00;69.40;;;;;;6306410;22;19907;-66
2023/01/20 02:52:10;;;;;;;;;;;20.00;70.30;;;;;;6278988;22;19903;-66
2023/01/20 02:54:37;;;;;;;;;;;20.00;70.50;;;;;;6279480;22;19977;-66
2023/01/20 02:57:04;;;;;;;;;;;20.00;69.10;;;;;;6279346;22;19909;-66
2023/01/20 02:59:32;;;;;;;;;;;20.00;67.90;;;;;;6278864;22;19910;-66
2023/01/20 03:02:03;;;;;;;;;;;20.00;67.20;;;;;;6306119;22;19906;-66
2023/01/20 03:04:32;;;;;;;;;;;20.10;66.80;;;;;;6279495;22;19907;-66
2023/01/20 03:06:59;;;;;;;;;;;20.20;68.00;;;;;;6306303;22;20245;-65
2023/01/20 03:09:36;;;;;;;;;;;20.20;66.60;;;;;;6306529;22;19945;-66
2023/01/20 03:12:11;;;;;;;;;;;20.20;66.40;;;;;;6279456;22;19925;-67
2023/01/20 03:14:37;;;;;;;;;;;20.30;65.80;;;;;;6279434;22;20334;-66
2023/01/20 03:17:04;;;;;;;;;;;20.30;65.50;;;;;;6253423;22;20353;-67
2023/01/20 03:19:31;;;;;;;;;;;20.50;63.80;;;;;;6306269;22;19914;-67
2023/01/20 03:21:57;;;;;;;;;;;20.50;65.00;;;;;;6278975;22;19909;-66
2023/01/20 03:24:25;;;;;;;;;;;20.60;65.20;;;;;;6306592;22;19973;-67
2023/01/20 03:26:51;;;;;;;;;;;20.70;64.50;;;;;;6308510;22;19990;-66
2023/01/20 03:29:18;;;;;;;;;;;20.70;63.40;;;;;;6308797;22;19903;-66
2023/01/20 03:31:48;;;;;;;;;;;20.70;64.80;;;;;;6307950;22;19903;-67
2023/01/20 03:34:16;;;;;;;;;;;20.60;66.80;;;;;;6308344;22;19903;-66
2023/01/20 03:36:43;;;;;;;;;;;20.60;65.30;;;;;;6280976;22;19902;-66
2023/01/20 03:39:10;;;;;;;;;;;20.60;64.60;;;;;;6281332;22;19903;-66
2023/01/20 03:41:54;;;;;;;;;;;20.60;67.90;;;;;;6255584;22;19903;-66
2023/01/20 03:44:50;;;;;;;;;;;20.60;70.80;;;;;;6308573;22;19911;-66
2023/01/20 03:47:20;;;;;;;;;;;20.50;72.20;;;;;;6172697;22;20047;-66
2023/01/20 03:49:56;;;;;;;;;;;20.30;74.60;;;;;;6308181;22;19907;-66
2023/01/20 03:52:33;;;;;;;;;;;20.20;75.30;;;;;;6306651;22;19933;-66
2023/01/20 03:55:01;;;;;;;;;;;20.20;75.30;;;;;;6280228;22;19903;-67
2023/01/20 03:57:38;;;;;;;;;;;20.10;76.30;;;;;;6280570;22;20325;-65
2023/01/20 04:00:05;;;;;;;;;;;20.10;75.50;;;;;;6280320;22;19903;-66
2023/01/20 04:02:31;;;;;;;;;;;20.10;76.70;;;;;;6279404;22;19914;-67
2023/01/20 04:04:58;;;;;;;;;;;20.20;76.30;;;;;;6279730;22;19937;-66
2023/01/20 04:07:25;;;;;;;;;;;20.20;77.50;;;;;;6278915;22;20340;-67
2023/01/20 04:09:52;;;;;;;;;;;20.20;75.90;;;;;;6306797;22;20196;-67
2023/01/20 04:12:19;;;;;;;;;;;20.30;76.80;;;;;;6279474;22;19915;-66
2023/01/20 04:14:46;;;;;;;;;;;20.30;74.70;;;;;;6253047;22;20327;-67
2023/01/20 04:17:12;;;;;;;;;;;20.40;74.40;;;;;;6278236;22;19915;-66
2023/01/20 04:19:39;;;;;;;;;;;20.50;74.10;;;;;;6278568;22;19915;-67
2023/01/20 04:22:10;;;;;;;;;;;20.50;73.60;;;;;;6305664;22;19903;-66
2023/01/20 04:24:39;;;;;;;;;;;20.50;74.40;;;;;;6303520;22;20342;-66
2023/01/20 04:27:06;;;;;;;;;;;20.50;72.60;;;;;;6303227;22;20002;-66
2023/01/20 04:29:33;;;;;;;;;;;20.60;74.30;;;;;;6303911;22;20314;-66
2023/01/20 04:32:00;;;;;;;;;;;20.50;73.20;;;;;;6301992;22;20238;-67
2023/01/20 04:34:26;;;;;;;;;;;20.60;73.40;;;;;;6302880;22;19907;-67
2023/01/20 04:36:53;;;;;;;;;;;20.60;73.00;;;;;;6301166;22;19909;-66
2023/01/20 04:39:20;;;;;;;;;;;20.60;73.40;;;;;;6302953;22;19915;-66
2023/01/20 04:41:47;;;;;;;;;;;20.60;73.70;;;;;;6273575;22;19907;-66
2023/01/20 04:44:14;;;;;;;;;;;20.60;73.60;;;;;;6303208;22;19903;-66
2023/01/20 04:46:40;;;;;;;;;;;20.60;72.20;;;;;;6276387;22;19918;-66
2023/01/20 04:49:24;;;;;;;;;;;20.60;72.80;;;;;;6213082;22;20116;-66
2023/01/20 04:51:50;;;;;;;;;;;20.60;70.70;;;;;;6304570;22;20223;-66
2023/01/20 04:54:17;;;;;;;;;;;20.70;69.80;;;;;;6304451;22;19907;-66
2023/01/20 04:56:44;;;;;;;;;;;20.70;69.60;;;;;;6303953;22;19907;-65
2023/01/20 04:59:11;;;;;;;;;;;20.80;68.90;;;;;;6303662;22;19930;-66
2023/01/20 05:01:37;;;;;;;;;;;20.80;68.80;;;;;;6304341;22;19994;-66
2023/01/20 05:04:04;;;;;;;;;;;20.80;67.50;;;;;;6303968;22;19907;-65
2023/01/20 05:06:30;;;;;;;;;;;20.80;67.30;;;;;;6304132;22;20005;-65
2023/01/20 05:08:57;;;;;;;;;;;20.80;67.70;;;;;;6303534;22;19926;-65
2023/01/20 05:11:24;;;;;;;;;;;20.80;67.10;;;;;;6303013;22;19903;-66
2023/01/20 05:13:50;;;;;;;;;;;20.80;66.60;;;;;;6302254;22;19952;-66
2023/01/20 05:16:23;;;;;;;;;;;20.90;63.90;;;;;;6303486;22;20353;-66
2023/01/20 05:18:50;;;;;;;;;;;20.90;66.30;;;;;;6303271;22;19918;-67
2023/01/20 05:21:17;;;;;;;;;;;20.90;64.90;;;;;;6302031;22;20060;-64
2023/01/20 05:23:43;;;;;;;;;;;20.90;65.40;;;;;;6301899;22;19906;-66
2023/01/20 05:26:10;;;;;;;;;;;20.90;63.60;;;;;;6303221;22;20326;-66
2023/01/20 05:28:37;;;;;;;;;;;21.00;63.80;;;;;;6275495;22;19907;-66
2023/01/20 05:31:03;;;;;;;;;;;21.00;63.80;;;;;;6303926;22;19906;-66
2023/01/20 05:33:30;;;;;;;;;;;21.00;65.20;;;;;;6303789;22;19930;-66
2023/01/20 05:35:57;;;;;;;;;;;21.00;66.70;;;;;;6302383;22;19906;-66
2023/01/20 05:38:23;;;;;;;;;;;20.90;63.90;;;;;;6303135;22;20302;-67
2023/01/20 05:40:50;;;;;;;;;;;20.90;62.50;;;;;;6299749;22;19914;-66
2023/01/20 05:43:17;;;;;;;;;;;20.80;63.20;;;;;;6302910;22;19913;-66
2023/01/20 05:45:45;;;;;;;;;;;20.80;63.60;;;;;;6302580;22;19909;-66
2023/01/20 05:48:12;;;;;;;;;;;20.80;62.40;;;;;;6301933;22;19919;-66
2023/01/20 05:50:38;;;;;;;;;;;20.80;63.30;;;;;;6302534;22;20427;-66
2023/01/20 05:53:05;;;;;;;;;;;20.80;63.50;;;;;;6303462;22;19968;-66
2023/01/20 05:55:32;;;;;;;;;;;20.80;64.00;;;;;;6303452;22;19903;-66
2023/01/20 05:58:00;;;;;;;;;;;20.80;63.00;;;;;;6302741;22;20319;-66
2023/01/20 06:00:27;;;;;;;;;;;20.70;64.30;;;;;;6303447;22;19934;-67
2023/01/20 06:02:54;;;;;;;;;;;20.70;63.30;;;;;;6303369;22;20005;-67
2023/01/20 06:36:24;;;;;;;;;;;20.70;74.40;;;;;;6301094;22;19926;-66
2023/01/20 06:38:51;;;;;;;;;;;20.70;73.30;;;;;;6303486;22;20271;-66
2023/01/20 06:41:19;;;;;;;;;;;20.60;73.90;;;;;;6299677;22;19951;-66
2023/01/20 06:43:45;;;;;;;;;;;20.60;71.40;;;;;;6302585;22;19981;-65
2023/01/20 06:46:13;;;;;;;;;;;20.60;69.60;;;;;;6302609;22;19911;-66
2023/01/20 06:48:40;;;;;;;;;;;20.50;65.30;;;;;;6302869;22;19912;-67
2023/01/20 06:51:07;;;;;;;;;;;20.70;65.70;;;;;;6302493;22;19906;-67
2023/01/20 06:53:33;;;;;;;;;;;20.70;64.00;;;;;;6302856;22;19978;-66
2023/01/20 06:56:00;;;;;;;;;;;20.70;65.10;;;;;;6303334;22;19960;-66
2023/01/20 06:58:28;;;;;;;;;;;20.80;66.10;;;;;;6303469;22;19907;-67
2023/01/20 07:00:55;;;;;;;;;;;20.70;67.30;;;;;;6302396;22;20304;-67
2023/01/20 07:03:21;;;;;;;;;;;20.70;67.90;;;;;;6303193;22;20344;-67
2023/01/20 07:06:01;;;;;;;;;;;20.70;68.60;;;;;;6303611;22;19903;-66
2023/01/20 07:08:27;;;;;;;;;;;20.70;68.10;;;;;;6302953;22;19915;-66
2023/01/20 07:10:54;;;;;;;;;;;20.70;67.90;;;;;;6303178;22;20041;-65
2023/01/20 07:13:21;;;;;;;;;;;20.60;69.10;;;;;;6303013;22;20037;-69
2023/01/20 07:15:48;;;;;;;;;;;20.70;68.30;;;;;;6303788;22;19910;-67
2023/01/20 07:18:15;;;;;;;;;;;20.60;67.60;;;;;;6303427;22;19906;-66
2023/01/20 07:20:42;;;;;;;;;;;20.60;68.00;;;;;;6303028;22;19917;-66
2023/01/20 07:23:09;;;;;;;;;;;20.70;68.50;;;;;;6302336;22;19903;-66
2023/01/20 07:25:37;;;;;;;;;;;20.60;68.10;;;;;;6300305;22;19994;-67
2023/01/20 07:28:03;;;;;;;;;;;20.50;69.00;;;;;;6301022;22;20389;-66
2023/01/20 07:30:30;;;;;;;;;;;20.50;69.10;;;;;;6302281;22;20279;-66
2023/01/20 07:32:57;;;;;;;;;;;20.50;69.00;;;;;;6303084;22;19911;-67
2023/01/20 19:53:04;;;;;;;;;;;18.10;88.60;;;;;;6295875;22;19941;-66
2023/01/20 19:55:31;;;;;;;;;;;18.20;88.60;;;;;;6301826;22;20272;-66
2023/01/20 19:57:58;;;;;;;;;;;18.30;88.50;;;;;;6302405;22;19986;-66
2023/01/20 20:00:24;;;;;;;;;;;18.30;88.30;;;;;;6302866;22;20368;-66
2023/01/20 20:02:54;;;;;;;;;;;18.30;88.20;;;;;;6302280;22;19934;-65
2023/01/20 20:05:21;;;;;;;;;;;18.40;88.10;;;;;;6302359;22;19934;-66
2023/01/20 20:07:49;;;;;;;;;;;18.50;88.00;;;;;;6303578;22;19914;-66
2023/01/20 20:10:16;;;;;;;;;;;18.50;88.00;;;;;;6274102;22;19960;-66
2023/01/20 20:12:43;;;;;;;;;;;18.50;87.90;;;;;;6304401;22;19910;-66
2023/01/20 20:15:10;;;;;;;;;;;18.60;87.80;;;;;;6304041;22;20245;-66
2023/01/20 20:17:37;;;;;;;;;;;18.60;87.60;;;;;;6304606;22;19907;-66
2023/01/20 20:20:04;;;;;;;;;;;18.60;87.50;;;;;;6304260;22;19967;-66
2023/01/20 20:22:30;;;;;;;;;;;18.60;87.50;;;;;;6303809;22;19914;-66
2023/01/20 20:27:25;;;;;;;;;;;18.70;87.00;;;;;;6333442;22;19930;-72
2023/01/20 20:29:55;;;;;;;;;;;18.80;87.00;;;;;;6334901;22;19930;-71
2023/01/20 20:32:21;;;;;;;;;;;18.70;86.80;;;;;;6325503;22;19914;-71
2023/01/20 20:34:48;;;;;;;;;;;18.80;86.70;;;;;;6303687;22;20330;-71
2023/01/20 20:37:15;;;;;;;;;;;18.80;86.70;;;;;;6304427;22;19939;-72
2023/01/20 20:39:41;;;;;;;;;;;18.80;86.70;;;;;;6304515;22;19930;-72
2023/01/20 20:42:08;;;;;;;;;;;18.90;86.70;;;;;;6304177;22;19907;-73
2023/01/20 20:44:35;;;;;;;;;;;18.90;86.50;;;;;;6303910;22;19952;-73
2023/01/20 20:47:02;;;;;;;;;;;19.00;86.70;;;;;;6304331;22;19918;-71
2023/01/20 20:49:30;;;;;;;;;;;19.00;86.30;;;;;;6303826;22;20007;-71
2023/01/20 20:51:57;;;;;;;;;;;19.00;86.30;;;;;;6303866;22;20020;-74
2023/01/20 20:54:24;;;;;;;;;;;19.00;86.10;;;;;;6303470;22;19907;-74
2023/01/20 20:56:50;;;;;;;;;;;19.20;85.90;;;;;;6303656;22;20405;-74
2023/01/20 20:59:23;;;;;;;;;;;19.20;85.90;;;;;;6303029;22;19903;-74
2023/01/20 21:01:50;;;;;;;;;;;19.20;85.40;;;;;;6303865;22;19907;-75
2023/01/20 21:04:17;;;;;;;;;;;19.20;85.50;;;;;;6302550;22;19907;-74
2023/01/20 21:06:43;;;;;;;;;;;19.30;85.50;;;;;;6304130;22;19907;-74
2023/01/20 21:09:10;;;;;;;;;;;19.30;85.50;;;;;;6302398;22;19914;-73
2023/01/20 21:11:37;;;;;;;;;;;19.40;85.90;;;;;;6276786;22;19907;-73
2023/01/20 21:14:03;;;;;;;;;;;19.50;85.60;;;;;;6303795;22;19907;-73
2023/01/20 21:16:30;;;;;;;;;;;19.50;85.60;;;;;;6303498;22;19902;-73
2023/01/20 21:18:58;;;;;;;;;;;19.60;85.60;;;;;;6302981;22;19983;-73
2023/01/20 21:21:24;;;;;;;;;;;19.70;84.90;;;;;;6303235;22;19910;-73
2023/01/20 21:23:52;;;;;;;;;;;19.70;84.30;;;;;;6303834;22;19899;-73
2023/01/20 21:26:18;;;;;;;;;;;19.90;84.30;;;;;;6303276;22;20344;-74
2023/01/20 21:28:47;;;;;;;;;;;20.00;83.30;;;;;;6303300;22;19903;-73
2023/01/20 21:31:15;;;;;;;;;;;20.20;83.40;;;;;;6303115;22;19907;-73
2023/01/20 21:33:42;;;;;;;;;;;20.40;82.70;;;;;;6303869;22;19903;-73
2023/01/20 21:36:11;;;;;;;;;;;20.60;82.20;;;;;;6303635;22;19907;-73
2023/01/20 21:38:38;;;;;;;;;;;20.70;82.10;;;;;;6303903;22;19938;-73
2023/01/20 21:41:07;;;;;;;;;;;20.80;81.10;;;;;;6303413;22;19929;-73
2023/01/20 21:46:18;;;;;;;;;;;20.90;80.10;;;;;;6303653;22;19910;-73
2023/01/20 21:54:15;;;;;;;;;;;21.00;79.60;;;;;;6304030;22;19952;-72
2023/01/20 21:56:42;;;;;;;;;;;21.00;79.00;;;;;;6304318;22;19986;-72
2023/01/20 21:59:08;;;;;;;;;;;21.10;79.00;;;;;;6303883;22;19911;-72
2023/01/20 22:01:35;;;;;;;;;;;21.20;77.50;;;;;;6303640;22;19907;-72
2023/01/20 22:04:02;;;;;;;;;;;21.20;77.00;;;;;;6303556;22;19914;-72
2023/01/20 22:06:29;;;;;;;;;;;21.30;75.40;;;;;;6303798;22;20413;-72
2023/01/20 22:08:57;;;;;;;;;;;21.40;75.00;;;;;;6304275;22;19903;-72
2023/01/20 22:11:24;;;;;;;;;;;21.50;73.70;;;;;;6301056;22;19926;-72
2023/01/20 22:13:54;;;;;;;;;;;21.80;73.50;;;;;;6302189;22;19922;-73
2023/01/20 22:16:21;;;;;;;;;;;22.10;71.50;;;;;;6303683;22;19911;-73
2023/01/20 22:18:48;;;;;;;;;;;22.30;72.40;;;;;;6303269;22;19911;-73
2023/01/20 22:21:15;;;;;;;;;;;22.50;69.60;;;;;;6303147;22;19906;-73
2023/01/20 22:23:41;;;;;;;;;;;22.60;70.50;;;;;;6303727;22;20303;-73
2023/01/20 22:26:08;;;;;;;;;;;22.60;69.20;;;;;;6303265;22;20261;-72
2023/01/20 22:28:38;;;;;;;;;;;22.70;67.10;;;;;;6303133;22;19914;-72
2023/01/20 22:31:12;;;;;;;;;;;22.70;64.00;;;;;;6302783;22;19906;-72
2023/01/20 22:33:38;;;;;;;;;;;22.70;64.00;;;;;;6302985;22;20028;-72
2023/01/20 22:36:05;;;;;;;;;;;22.50;63.40;;;;;;6303836;22;19903;-72
2023/01/20 22:38:32;;;;;;;;;;;22.50;65.10;;;;;;6303081;22;20242;-72
2023/01/20 22:41:03;;;;;;;;;;;22.40;66.40;;;;;;6302960;22;20012;-72
2023/01/20 22:43:30;;;;;;;;;;;22.20;67.90;;;;;;6302769;22;19927;-72
2023/01/20 22:45:59;;;;;;;;;;;22.10;67.10;;;;;;6302481;22;19907;-72
2023/01/20 22:48:26;;;;;;;;;;;22.00;67.40;;;;;;6302715;22;19981;-72
2023/01/20 22:50:53;;;;;;;;;;;21.90;67.30;;;;;;6303596;22;19907;-72
2023/01/20 22:53:19;;;;;;;;;;;21.90;67.70;;;;;;6303330;22;19926;-72
2023/01/20 22:55:46;;;;;;;;;;;21.80;65.50;;;;;;6302912;22;19907;-72
2023/01/20 22:58:15;;;;;;;;;;;21.80;66.60;;;;;;6302999;22;19914;-72
2023/01/20 23:00:42;;;;;;;;;;;21.70;66.70;;;;;;6302499;22;19914;-72
2023/01/20 23:03:09;;;;;;;;;;;21.70;67.80;;;;;;6303096;22;19933;-73
2023/01/20 23:05:36;;;;;;;;;;;21.70;67.70;;;;;;6303247;22;19907;-72
2023/01/20 23:08:03;;;;;;;;;;;21.60;67.80;;;;;;6274955;22;19910;-72
2023/01/20 23:10:47;;;;;;;;;;;21.60;68.60;;;;;;6300311;22;19914;-72
2023/01/20 23:13:15;;;;;;;;;;;21.70;69.70;;;;;;6302525;22;20262;-72
2023/01/20 23:15:42;;;;;;;;;;;21.80;65.90;;;;;;6302493;22;19907;-72
2023/01/20 23:18:10;;;;;;;;;;;21.90;65.80;;;;;;6302776;22;19903;-72
2023/01/20 23:20:36;;;;;;;;;;;21.90;64.40;;;;;;6301428;22;19938;-72
2023/01/20 23:23:03;;;;;;;;;;;22.10;64.60;;;;;;6301618;22;19914;-72
2023/01/20 23:25:30;;;;;;;;;;;22.10;64.80;;;;;;6303049;22;19972;-72
2023/01/20 23:27:56;;;;;;;;;;;22.00;64.80;;;;;;6303076;22;19922;-72
2023/01/20 23:30:23;;;;;;;;;;;21.90;64.50;;;;;;6303357;22;19909;-72
2023/01/20 23:32:50;;;;;;;;;;;21.90;63.60;;;;;;6303609;22;20041;-73
2023/01/20 23:35:16;;;;;;;;;;;21.80;64.40;;;;;;6303151;22;19913;-72
2023/01/20 23:37:43;;;;;;;;;;;21.80;64.70;;;;;;6303540;22;19915;-72
2023/01/20 23:40:10;;;;;;;;;;;21.90;65.70;;;;;;6303025;22;19943;-72
2023/01/20 23:42:37;;;;;;;;;;;21.80;65.20;;;;;;6303940;22;19907;-72
2023/01/20 23:45:03;;;;;;;;;;;21.90;66.50;;;;;;6304645;22;19907;-72
2023/01/20 23:47:30;;;;;;;;;;;21.80;65.40;;;;;;6305126;22;19910;-72
2023/01/20 23:49:57;;;;;;;;;;;21.90;66.50;;;;;;6305592;22;19903;-72
2023/01/20 23:52:24;;;;;;;;;;;21.90;66.80;;;;;;6304888;22;20341;-72
2023/01/20 23:54:52;;;;;;;;;;;21.90;67.40;;;;;;6304509;22;19969;-72
2023/01/20 23:57:18;;;;;;;;;;;21.90;64.90;;;;;;6305013;22;20058;-72
2023/01/20 23:59:45;;;;;;;;;;;21.80;64.60;;;;;;6304711;22;19978;-72
